createdAt,value
2023-02-17T00:02:23.517Z,100039.19
2023-02-17T00:04:50.532Z,100044.66
2023-02-17T00:07:17.616Z,100045.59
2023-02-17T00:09:44.536Z,100048.28
2023-02-17T00:12:11.593Z,100049.00
2023-02-17T00:14:41.664Z,100036.09
2023-02-17T00:17:08.678Z,100040.31
2023-02-17T00:19:35.770Z,100044.94
2023-02-17T00:22:02.945Z,100047.00
2023-02-17T00:24:31.407Z,100051.28
2023-02-17T00:26:58.388Z,100046.28
2023-02-17T00:29:26.342Z,100047.41
2023-02-17T00:31:54.535Z,100044.97
2023-02-17T00:34:23.537Z,100044.13
2023-02-17T00:36:50.777Z,100046.69
2023-02-17T00:39:18.274Z,100035.97
2023-02-17T00:41:48.980Z,100040.00
2023-02-17T00:44:20.340Z,100033.34
2023-02-17T00:46:47.624Z,100028.25
2023-02-17T00:49:16.249Z,100035.88
2023-02-17T00:51:43.718Z,100029.09
2023-02-17T00:54:10.896Z,100028.91
2023-02-17T00:56:37.850Z,100026.28
2023-02-17T00:59:04.888Z,100026.09
2023-02-17T01:01:32.533Z,100009.56
2023-02-17T01:03:59.883Z,100016.31
2023-02-17T01:06:34.612Z,100013.94
2023-02-17T01:09:01.735Z,100022.13
2023-02-17T01:11:30.245Z,100014.25
2023-02-17T01:13:58.784Z,100011.50
2023-02-17T01:16:28.119Z,100020.22
2023-02-17T01:18:55.253Z,100011.28
2023-02-17T01:21:26.548Z,100016.25
2023-02-17T01:23:54.490Z,100011.78
2023-02-17T01:26:23.335Z,100015.06
2023-02-17T01:28:50.963Z,100013.19
2023-02-17T01:31:18.702Z,100013.09
2023-02-17T01:33:45.910Z,100013.09
2023-02-17T01:36:15.951Z,100015.81
2023-02-17T01:38:42.909Z,100013.56
2023-02-17T01:41:10.362Z,100018.56
2023-02-17T01:43:37.419Z,100010.00
2023-02-17T01:46:06.372Z,100015.22
2023-02-17T01:48:44.907Z,100017.69
2023-02-17T01:51:23.982Z,100015.97
2023-02-17T01:53:59.166Z,100021.41
2023-02-17T01:56:26.726Z,100015.97
2023-02-17T01:58:56.255Z,100016.53
2023-02-17T02:01:23.584Z,100020.25
2023-02-17T02:03:52.177Z,100023.78
2023-02-17T02:06:21.182Z,100016.34
2023-02-17T02:09:02.331Z,100026.03
2023-02-17T02:11:29.683Z,100021.72
2023-02-17T02:13:57.231Z,100025.28
2023-02-17T02:16:24.928Z,100031.31
2023-02-17T02:18:54.995Z,100023.88
2023-02-17T02:21:41.121Z,100013.19
2023-02-17T02:24:23.320Z,100016.66
2023-02-17T02:27:07.515Z,100015.41
2023-02-17T02:30:13.121Z,100012.66
2023-02-17T02:32:40.107Z,100011.88
2023-02-17T02:35:23.202Z,100015.41
2023-02-17T02:38:02.438Z,100014.59
2023-02-17T02:40:33.176Z,100017.22
2023-02-17T02:43:01.872Z,100013.53
2023-02-17T02:45:29.396Z,100014.59
2023-02-17T02:47:57.781Z,100014.78
2023-02-17T02:50:33.559Z,100020.25
2023-02-17T02:53:12.931Z,100017.78
2023-02-17T02:55:46.077Z,100025.13
2023-02-17T02:58:13.193Z,100019.19
2023-02-17T03:00:54.320Z,100021.94
2023-02-17T03:03:29.901Z,100024.47
2023-02-17T03:06:03.573Z,100021.09
2023-02-17T03:08:36.594Z,100021.81
2023-02-17T03:11:04.316Z,100021.03
2023-02-17T03:13:39.695Z,100026.41
2023-02-17T03:16:09.560Z,100031.63
2023-02-17T03:18:36.730Z,100036.09
2023-02-17T03:21:11.926Z,100026.59
2023-02-17T03:23:39.091Z,100022.41
2023-02-17T03:26:07.035Z,100021.78
2023-02-17T03:28:34.224Z,100022.88
2023-02-17T03:31:01.412Z,100017.03
2023-02-17T03:33:28.854Z,100024.84
2023-02-17T03:35:56.701Z,100025.75
2023-02-17T03:38:23.910Z,100035.25
2023-02-17T03:40:50.926Z,100024.91
2023-02-17T03:43:18.213Z,100024.06
2023-02-17T03:45:45.194Z,100021.34
2023-02-17T03:48:12.527Z,100023.78
2023-02-17T03:50:39.597Z,100019.47
2023-02-17T03:53:06.667Z,100017.78
2023-02-17T03:55:33.641Z,100019.69
2023-02-17T03:58:00.969Z,100016.31
2023-02-17T04:00:28.049Z,100022.38
2023-02-17T04:02:57.213Z,100019.81
2023-02-17T04:05:24.501Z,100025.09
2023-02-17T04:07:52.412Z,100027.84
2023-02-17T04:10:19.677Z,100033.91
2023-02-17T04:12:46.676Z,100029.50
2023-02-17T04:15:13.678Z,100034.81
2023-02-17T04:17:40.824Z,100036.59
2023-02-17T04:20:08.419Z,100037.59
2023-02-17T04:22:35.322Z,100037.53
2023-02-17T04:25:02.224Z,100038.44
2023-02-17T04:27:30.396Z,100025.47
2023-02-17T04:29:57.604Z,100032.38
2023-02-17T04:32:24.707Z,100027.25
2023-02-17T04:34:51.678Z,100023.66
2023-02-17T04:37:18.647Z,100027.06
2023-02-17T04:39:45.944Z,100022.72
2023-02-17T04:42:13.053Z,100018.34
2023-02-17T04:44:40.107Z,100018.34
2023-02-17T04:47:07.138Z,100010.47
2023-02-17T04:49:34.732Z,100018.13
2023-02-17T04:52:01.932Z,100023.16
2023-02-17T04:54:29.375Z,100021.22
2023-02-17T04:56:56.510Z,100024.47
2023-02-17T04:59:25.552Z,100013.91
2023-02-17T05:01:52.651Z,100026.16
2023-02-17T05:04:19.604Z,100037.94
2023-02-17T05:06:47.341Z,100033.75
2023-02-17T05:09:14.474Z,100041.84
2023-02-17T05:11:41.852Z,100040.38
2023-02-17T05:14:09.233Z,100040.44
2023-02-17T05:16:36.364Z,100032.84
2023-02-17T05:19:13.898Z,100037.88
2023-02-17T05:21:41.369Z,100033.19
2023-02-17T05:24:08.579Z,100034.72
2023-02-17T05:26:35.938Z,100039.63
2023-02-17T05:29:02.947Z,100032.56
2023-02-17T05:34:10.922Z,100043.50
2023-02-17T05:36:37.962Z,100038.94
2023-02-17T05:39:04.984Z,100036.66
2023-02-17T05:44:15.219Z,100039.00
2023-02-17T05:46:42.297Z,100033.97
2023-02-17T05:49:09.492Z,100038.81
2023-02-17T05:51:36.877Z,100041.41
2023-02-17T05:54:03.863Z,100031.78
2023-02-17T05:56:30.887Z,100033.25
2023-02-17T05:58:58.074Z,100042.59
2023-02-17T06:01:26.724Z,100040.34
2023-02-17T06:03:53.887Z,100044.34
2023-02-17T06:06:22.154Z,100042.41
2023-02-17T06:08:49.185Z,100036.44
2023-02-17T06:11:16.629Z,100036.13
2023-02-17T06:13:43.664Z,100039.22
2023-02-17T06:16:11.024Z,100039.75
2023-02-17T06:18:38.172Z,100039.69
2023-02-17T06:21:06.649Z,100042.31
2023-02-17T06:23:33.682Z,100054.19
2023-02-17T06:26:00.699Z,100049.72
2023-02-17T06:28:27.776Z,100049.34
2023-02-17T06:30:54.880Z,100050.19
2023-02-17T06:33:21.902Z,100053.66
2023-02-17T06:35:52.445Z,100053.34
2023-02-17T06:38:19.851Z,100047.16
2023-02-17T06:40:47.228Z,100050.44
2023-02-17T06:43:14.330Z,100045.88
2023-02-17T06:45:41.428Z,100056.97
2023-02-17T06:48:08.688Z,100046.25
2023-02-17T06:50:36.072Z,100049.31
2023-02-17T06:53:03.179Z,100049.13
2023-02-17T06:55:31.154Z,100047.44
2023-02-17T06:58:17.746Z,100041.50
2023-02-17T07:00:44.669Z,100044.56
2023-02-17T07:03:11.843Z,100047.22
2023-02-17T07:05:40.422Z,100046.19
2023-02-17T07:08:07.494Z,100044.50
2023-02-17T07:10:34.620Z,100046.13
2023-02-17T07:13:06.793Z,100037.50
2023-02-17T07:15:33.710Z,100042.88
2023-02-17T07:18:01.751Z,100042.59
2023-02-17T07:20:28.734Z,100038.94
2023-02-17T07:22:55.826Z,100042.06
2023-02-17T07:25:22.979Z,100044.97
2023-02-17T07:27:50.212Z,100030.53
2023-02-17T07:30:17.843Z,100024.72
2023-02-17T07:32:44.932Z,100035.25
2023-02-17T07:35:12.138Z,100036.19
2023-02-17T07:37:39.677Z,100024.94
2023-02-17T07:40:09.970Z,100026.06
2023-02-17T07:42:40.263Z,100025.97
2023-02-17T07:45:07.418Z,100026.28
2023-02-17T07:47:34.644Z,100019.69
2023-02-17T07:50:01.618Z,100032.34
2023-02-17T07:52:32.666Z,100026.34
2023-02-17T07:55:00.009Z,100033.06
2023-02-17T07:57:27.348Z,100020.44
2023-02-17T07:59:54.765Z,100021.44
2023-02-17T08:02:22.138Z,100014.00
2023-02-17T08:04:49.619Z,100017.16
2023-02-17T08:07:22.313Z,100021.66
2023-02-17T08:10:10.835Z,100016.22
2023-02-17T08:12:56.934Z,100011.38
2023-02-17T08:15:26.291Z,100018.16
2023-02-17T08:17:54.454Z,100021.72
2023-02-17T08:23:05.266Z,100014.47
2023-02-17T08:25:37.546Z,100016.75
2023-02-17T08:28:10.024Z,100012.94
2023-02-17T08:30:43.750Z,100010.13
2023-02-17T08:33:11.573Z,100015.09
2023-02-17T08:35:38.581Z,100012.16
2023-02-17T08:38:08.967Z,100020.34
2023-02-17T08:40:36.243Z,100015.94
2023-02-17T08:43:03.865Z,100013.72
2023-02-17T08:45:32.922Z,100013.41
2023-02-17T08:48:00.705Z,100015.56
2023-02-17T08:50:28.212Z,100006.31
2023-02-17T08:52:56.916Z,100015.81
2023-02-17T08:58:05.874Z,100012.94
2023-02-17T09:00:33.708Z,100008.03
2023-02-17T09:03:01.935Z,100007.72
2023-02-17T09:05:29.330Z,100001.06
2023-02-17T09:07:56.532Z,100000.63
2023-02-17T09:13:07.207Z,100002.63
2023-02-17T09:15:34.907Z,100001.47
2023-02-17T09:18:04.870Z,99995.56
2023-02-17T09:20:32.023Z,99998.91
2023-02-17T09:22:59.665Z,100008.22
2023-02-17T09:25:27.207Z,100001.09
2023-02-17T09:27:59.521Z,100010.69
2023-02-17T09:30:27.068Z,100001.78
2023-02-17T09:35:38.306Z,99988.91
2023-02-17T09:38:11.816Z,99991.06
2023-02-17T09:40:43.905Z,99986.78
2023-02-17T09:46:07.606Z,99989.34
2023-02-17T09:48:35.625Z,99987.06
2023-02-17T09:51:10.966Z,99990.38
2023-02-17T09:53:49.093Z,99986.59
2023-02-17T09:56:23.575Z,99987.19
2023-02-17T09:58:54.860Z,99986.25
2023-02-17T10:01:24.502Z,99975.44
2023-02-17T10:03:52.202Z,99979.84
2023-02-17T10:06:25.058Z,99974.09
2023-02-17T10:09:10.676Z,99978.16
2023-02-17T10:11:39.124Z,99979.47
2023-02-17T10:14:22.418Z,99977.94
2023-02-17T10:16:52.548Z,99975.03
2023-02-17T10:22:11.686Z,99965.03
2023-02-17T10:24:39.496Z,99958.25
2023-02-17T10:27:12.177Z,99955.63
2023-02-17T10:29:43.366Z,99956.63
2023-02-17T10:32:32.661Z,99956.13
2023-02-17T10:35:06.388Z,99950.38
2023-02-17T10:40:19.854Z,99956.97
2023-02-17T10:42:48.406Z,99957.69
2023-02-17T10:48:36.183Z,99946.50
2023-02-17T10:53:48.055Z,99923.84
2023-02-17T10:56:17.844Z,99927.22
2023-02-17T10:59:01.023Z,99924.47
2023-02-17T11:01:28.601Z,99927.06
2023-02-17T11:06:50.113Z,99928.75
2023-02-17T11:09:42.810Z,99929.53
2023-02-17T11:12:15.065Z,99920.84
2023-02-17T11:14:46.620Z,99916.34
2023-02-17T11:17:33.872Z,99918.94
2023-02-17T11:20:05.073Z,99927.44
2023-02-17T11:22:33.066Z,99923.22
2023-02-17T11:25:01.053Z,99930.13
2023-02-17T11:27:28.186Z,99925.28
2023-02-17T11:30:05.882Z,99918.59
2023-02-17T11:32:35.776Z,99918.44
2023-02-17T11:35:16.648Z,99911.44
2023-02-17T11:37:45.296Z,99911.06
2023-02-17T11:40:32.567Z,99905.22
2023-02-17T11:43:03.507Z,99909.56
2023-02-17T11:45:41.871Z,99906.97
2023-02-17T11:48:28.228Z,99897.59
2023-02-17T11:51:23.997Z,99900.81
2023-02-17T11:53:58.543Z,99903.81
2023-02-17T11:56:30.148Z,99897.75
2023-02-17T11:59:15.756Z,99894.09
2023-02-17T12:02:21.889Z,99895.28
2023-02-17T12:04:53.591Z,99892.38
2023-02-17T12:07:39.844Z,99891.44
2023-02-17T12:10:38.949Z,99891.81
2023-02-17T12:13:06.350Z,99882.34
2023-02-17T12:15:59.443Z,99881.13
2023-02-17T12:18:35.625Z,99882.34
2023-02-17T12:21:05.765Z,99881.44
2023-02-17T12:23:38.945Z,99881.78
2023-02-17T12:26:24.553Z,99878.94
2023-02-17T12:29:02.219Z,99881.59
2023-02-17T12:31:49.881Z,99869.78
2023-02-17T12:34:30.551Z,99879.47
2023-02-17T12:37:00.107Z,99876.25
2023-02-17T12:39:46.570Z,99877.44
2023-02-17T12:42:38.925Z,99879.34
2023-02-17T12:45:21.332Z,99876.59
2023-02-17T12:47:54.948Z,99882.06
2023-02-17T12:50:27.405Z,99886.47
2023-02-17T12:52:57.909Z,99876.22
2023-02-17T12:55:32.779Z,99877.53
2023-02-17T12:58:07.890Z,99881.88
2023-02-17T13:00:37.711Z,99874.03
2023-02-17T13:03:06.905Z,99874.63
2023-02-17T13:05:36.988Z,99870.78
2023-02-17T13:08:10.457Z,99874.78
2023-02-17T13:10:39.391Z,99870.38
2023-02-17T13:13:12.724Z,99867.00
2023-02-17T13:15:39.730Z,99867.41
2023-02-17T13:18:11.663Z,99866.66
2023-02-17T13:20:54.214Z,99867.31
2023-02-17T13:23:39.570Z,99861.09
2023-02-17T13:26:21.294Z,99872.91
2023-02-17T13:28:49.356Z,99858.91
2023-02-17T13:33:59.573Z,99861.09
2023-02-17T13:36:29.800Z,99856.19
2023-02-17T13:39:00.637Z,99868.81
2023-02-17T13:41:56.066Z,99855.47
2023-02-17T13:44:28.516Z,99850.25
2023-02-17T13:46:58.810Z,99845.25
2023-02-17T13:49:28.564Z,99851.56
2023-02-17T13:52:07.214Z,99851.41
2023-02-17T13:54:34.567Z,99851.09
2023-02-17T13:59:42.802Z,99851.88
2023-02-17T14:02:30.440Z,99850.88
2023-02-17T14:05:06.898Z,99847.34
2023-02-17T14:07:36.614Z,99841.19
2023-02-17T14:10:03.976Z,99849.09
2023-02-17T14:12:31.352Z,99839.03
2023-02-17T14:14:59.277Z,99832.13
2023-02-17T14:17:38.271Z,99833.09
2023-02-17T14:20:07.463Z,99835.97
2023-02-17T14:22:37.510Z,99836.97
2023-02-17T14:25:05.292Z,99829.50
2023-02-17T14:27:43.365Z,99828.81
2023-02-17T14:30:15.294Z,99829.00
2023-02-17T14:32:42.860Z,99827.44
2023-02-17T14:35:30.735Z,99834.38
2023-02-17T14:38:07.673Z,99838.00
2023-02-17T14:43:22.513Z,99838.97
2023-02-17T14:45:49.900Z,99837.44
2023-02-17T14:48:16.934Z,99837.44
2023-02-17T14:50:45.524Z,99836.69
2023-02-17T14:53:27.602Z,99838.22
2023-02-17T14:56:09.015Z,99838.84
2023-02-17T14:58:36.288Z,99839.75
2023-02-17T15:01:04.080Z,99838.13
2023-02-17T15:03:31.207Z,99837.53
2023-02-17T15:06:00.681Z,99842.91
2023-02-17T15:08:35.408Z,99841.34
2023-02-17T15:11:03.342Z,99838.97
2023-02-17T15:13:32.069Z,99842.38
2023-02-17T15:16:00.282Z,99835.59
2023-02-17T15:18:28.273Z,99839.28
2023-02-17T15:23:36.934Z,99831.13
2023-02-17T15:29:22.105Z,99832.50
2023-02-17T15:34:34.338Z,99832.63
2023-02-17T15:37:02.193Z,99833.44
2023-02-17T15:39:31.381Z,99832.72
2023-02-17T15:42:00.898Z,99832.84
2023-02-17T15:47:18.276Z,99830.75
2023-02-17T15:49:45.884Z,99824.00
2023-02-17T15:52:13.690Z,99826.53
2023-02-17T15:54:41.625Z,99822.31
2023-02-17T16:02:37.159Z,99813.00
2023-02-17T16:05:04.640Z,99802.69
2023-02-17T16:07:31.713Z,99804.59
2023-02-17T16:12:41.952Z,99801.13
2023-02-17T16:18:05.060Z,99797.81
2023-02-17T16:23:16.064Z,99789.91
2023-02-17T16:25:45.005Z,99798.47
2023-02-17T16:28:22.201Z,99795.63
2023-02-17T16:30:50.556Z,99784.31
2023-02-17T16:33:20.546Z,99789.41
2023-02-17T16:35:53.484Z,99779.88
2023-02-17T16:41:14.415Z,99785.19
2023-02-17T16:46:31.327Z,99774.72
2023-02-17T16:48:59.888Z,99770.50
2023-02-17T16:51:29.796Z,99774.94
2023-02-17T16:53:57.834Z,99767.25
2023-02-17T16:59:16.592Z,99762.34
2023-02-17T17:01:52.051Z,99760.56
2023-02-17T17:07:04.205Z,99748.47
2023-02-17T17:24:03.220Z,99737.91
2023-02-17T17:38:26.769Z,99719.56
2023-02-17T17:46:31.130Z,99705.84
2023-02-17T17:49:01.856Z,99699.91
2023-02-17T17:59:51.716Z,99686.34
2023-02-17T18:02:23.165Z,99683.94
2023-02-17T18:53:21.653Z,99662.31
2023-02-17T19:01:28.047Z,99645.81
2023-02-17T19:06:40.052Z,99651.19
2023-02-17T19:48:48.284Z,99630.84
2023-02-17T19:51:15.909Z,99629.34
2023-02-17T19:53:44.076Z,99627.94
2023-02-17T19:56:16.545Z,99625.19
2023-02-17T20:06:58.763Z,99607.69
2023-02-17T20:09:26.300Z,99603.44
2023-02-17T20:11:53.717Z,99600.72
2023-02-17T20:14:21.592Z,99602.59
2023-02-17T20:19:46.484Z,99614.50
2023-02-17T20:22:13.773Z,99611.13
2023-02-17T20:24:43.256Z,99607.97
2023-02-17T20:27:11.188Z,99612.34
2023-02-17T20:29:38.241Z,99617.59
2023-02-17T20:32:07.052Z,99615.13
2023-02-17T20:34:38.666Z,99600.34
2023-02-17T20:37:07.009Z,99608.34
2023-02-17T20:39:36.201Z,99594.63
2023-02-17T20:42:03.964Z,99606.66
2023-02-17T20:44:31.272Z,99605.75
2023-02-17T20:46:58.804Z,99582.13
2023-02-17T20:49:27.203Z,99581.13
2023-02-17T20:51:54.273Z,99577.81
2023-02-17T20:54:21.268Z,99579.56
2023-02-17T20:56:51.073Z,99581.41
2023-02-17T20:59:18.120Z,99579.81
2023-02-17T21:01:45.948Z,99573.97
2023-02-17T21:04:14.328Z,99572.34
2023-02-17T21:06:43.178Z,99564.91
2023-02-17T21:09:15.576Z,99557.16
2023-02-17T21:11:43.110Z,99559.88
2023-02-17T21:14:10.619Z,99545.13
2023-02-17T21:16:37.956Z,99550.50
2023-02-17T21:19:05.561Z,99542.84
2023-02-17T21:21:32.679Z,99537.84
2023-02-17T21:24:00.044Z,99535.31
2023-02-17T21:26:27.748Z,99534.41
2023-02-17T21:28:55.306Z,99534.41
2023-02-17T21:31:22.699Z,99517.47
2023-02-17T21:33:49.915Z,99512.66
2023-02-17T21:36:18.482Z,99507.69
2023-02-17T21:38:46.645Z,99512.03
2023-02-17T21:41:15.194Z,99513.72
2023-02-17T21:44:00.828Z,99517.97
2023-02-17T21:46:28.892Z,99512.88
2023-02-17T21:48:57.180Z,99515.75
2023-02-17T21:51:24.792Z,99502.09
2023-02-17T21:53:52.906Z,99498.59
2023-02-17T21:56:20.908Z,99497.78
2023-02-17T21:58:52.503Z,99497.66
2023-02-17T22:01:20.220Z,99489.94
2023-02-17T22:03:47.296Z,99488.34
2023-02-17T22:06:15.314Z,99487.44
2023-02-17T22:08:42.417Z,99479.94
2023-02-17T22:11:16.663Z,99486.13
2023-02-17T22:13:44.023Z,99482.78
2023-02-17T22:16:11.569Z,99477.84
2023-02-17T22:18:38.749Z,99474.31
2023-02-17T22:23:53.822Z,99469.13
2023-02-17T22:26:22.109Z,99465.13
2023-02-17T22:28:49.504Z,99455.97
2023-02-17T22:31:18.013Z,99456.81
2023-02-17T22:33:45.422Z,99460.91
2023-02-17T22:36:17.302Z,99453.19
2023-02-17T22:38:44.978Z,99449.97
2023-02-17T22:41:13.799Z,99444.53
2023-02-17T22:43:42.926Z,99442.59
2023-02-17T22:46:11.045Z,99436.53
2023-02-17T22:48:39.098Z,99440.16
2023-02-17T22:51:07.164Z,99434.03
2023-02-17T22:53:35.140Z,99439.00
2023-02-17T22:56:02.710Z,99430.69
2023-02-17T22:58:30.214Z,99433.28
2023-02-17T23:01:06.550Z,99434.03
2023-02-17T23:03:33.848Z,99436.88
2023-02-17T23:06:01.666Z,99417.97
2023-02-17T23:08:28.978Z,99420.81
2023-02-17T23:10:56.226Z,99419.91
2023-02-17T23:13:23.296Z,99411.56
2023-02-17T23:15:50.356Z,99407.34
2023-02-17T23:18:18.780Z,99409.03
2023-02-17T23:20:47.125Z,99404.84
2023-02-17T23:23:14.246Z,99398.94
2023-02-17T23:25:54.827Z,99393.91
2023-02-17T23:28:23.221Z,99384.28
2023-02-17T23:30:50.570Z,99380.72
2023-02-17T23:33:18.756Z,99376.97
2023-02-17T23:35:46.208Z,99367.41
2023-02-17T23:38:13.994Z,99366.50
2023-02-17T23:40:41.435Z,99370.66
2023-02-17T23:43:08.950Z,99368.66
2023-02-17T23:45:37.776Z,99370.31
2023-02-17T23:48:05.937Z,99361.78
2023-02-17T23:50:33.300Z,99359.03
2023-02-17T23:53:00.242Z,99365.41
2023-02-17T23:55:27.410Z,99359.72
2023-02-17T23:57:54.411Z,99363.91
